Impacts METAR Board
IDs:

KGYB - Giddings/Lee Cnty, TX, US

Updated at: 1400 UTC 20 Oct 2021
Potential Impact None Slight Moderate High
Time 20/02Z 20/03Z 20/04Z 20/05Z 20/06Z 20/07Z 20/08Z 20/09Z 20/10Z 20/11Z 20/12Z 20/13Z 20/14Z
Temp71 69 69 67 67 67 65 64 63 62 61 61 64
Dewpt61 61 63 64 65 65 65 63 62 61 61 60 63
Altim30.04 30.05 30.06 30.07 30.07 30.07 30.07 30.07 30.07 30.07 30.09 30.09 30.10
VIS10 10 10 10 10 10 10 10 7 10 4 7 3
CIG-- -- -- -- -- -- -- -- -- -- -- -- --
CoverCLRCLRCLRSCTSCTCLRCLRCLRCLRCLRCLRCLRCLR
FltCatVFRVFRVFRVFRVFRVFRVFRVFRVFRVFRMVFRVFRMVFR
WX--------------------BR--BR
WDir0140150160000000000
WSpd0 3 4 3 0 0 0 0 0 0 0 0 0
WGst-- -- -- -- -- -- -- -- -- -- -- -- --
Raw hourly METARs
KGYB 200155Z AUTO 00000KT 10SM CLR 21/16 A3004 RMK AO2 T02140160
KGYB 200255Z AUTO 14003KT 10SM CLR 21/16 A3005 RMK AO2 T02080162
KGYB 200355Z AUTO 15004KT 10SM CLR 21/17 A3006 RMK AO2 T02050170
KGYB 200455Z AUTO 16003KT 10SM SCT013 20/18 A3007 RMK AO2 T01970175
KGYB 200555Z AUTO 00000KT 10SM SCT015 19/18 A3007 RMK AO2 T01930182 10242 20193 402750129
KGYB 200655Z AUTO 00000KT 10SM CLR 19/19 A3007 RMK AO2 T01920185
KGYB 200755Z AUTO 00000KT 10SM CLR 19/18 A3007 RMK AO2 T01860181
KGYB 200855Z AUTO 00000KT 10SM CLR 18/17 A3007 RMK AO2 T01750170
KGYB 200955Z AUTO 00000KT 7SM CLR 17/17 A3007 RMK AO2 T01700167
KGYB 201055Z AUTO 00000KT 10SM CLR 17/16 A3007 RMK AO2 T01660161
KGYB 201155Z AUTO 00000KT 4SM BR CLR 16/16 A3009 RMK AO2 T01620159 10196 20158
KGYB 201255Z AUTO 00000KT 7SM CLR 16/16 A3009 RMK AO2 T01620157
KGYB 201355Z AUTO 00000KT 3SM BR CLR 18/17 A3010 RMK AO2 T01750172